Time;durP1;ratioP1;P1;durP2;ratioP2;P2;SDS_P1;SDS_P2;PMS_P1;PMS_P2;Temp;Humidity;BMP_temperature;BMP_pressure;BME280_temperature;BME280_humidity;BME280_pressure;Samples;Min_cycle;Max_cycle;Signal;HPM_P1;HPM_P2
2024/02/21 00:00:06;;;;;;;49.97;30.80;;;;;22.20;101192.00;;;;2058902;28;20257;-70
2024/02/21 00:01:06;;;;;;;44.37;28.90;;;;;22.20;101196.00;;;;2051684;28;20238;-70
2024/02/21 00:02:07;;;;;;;40.40;28.43;;;;;22.20;101200.00;;;;2053798;28;20471;-70
2024/02/21 00:03:07;;;;;;;40.43;29.30;;;;;22.20;101186.00;;;;2048006;28;20250;-70
2024/02/21 00:04:07;;;;;;;40.93;28.07;;;;;22.20;101187.00;;;;2047258;28;20240;-70
2024/02/21 00:05:08;;;;;;;43.47;27.63;;;;;21.80;101187.00;;;;2038665;28;20688;-70
2024/02/21 00:06:08;;;;;;;41.27;28.53;;;;;22.20;101187.00;;;;2048178;28;20716;-70
2024/02/21 00:07:08;;;;;;;38.27;26.60;;;;;22.20;101189.00;;;;2046340;28;20780;-70
2024/02/21 00:08:09;;;;;;;40.63;27.90;;;;;22.20;101176.00;;;;2047231;28;20224;-70
2024/02/21 00:09:09;;;;;;;40.00;26.37;;;;;22.20;101180.00;;;;2047804;28;20208;-70
2024/02/21 00:10:10;;;;;;;38.00;26.00;;;;;22.20;101182.00;;;;2038267;28;20252;-70
2024/02/21 00:11:10;;;;;;;41.67;26.63;;;;;22.20;101127.00;;;;2054031;28;20216;-70
2024/02/21 00:12:10;;;;;;;40.30;27.07;;;;;22.20;101184.00;;;;2054964;28;20207;-70
2024/02/21 00:13:11;;;;;;;42.57;26.70;;;;;22.20;101175.00;;;;2047478;28;20211;-70
2024/02/21 00:14:11;;;;;;;36.80;25.43;;;;;22.20;101178.00;;;;2046895;28;20303;-70
2024/02/21 00:15:11;;;;;;;42.17;25.80;;;;;22.10;101173.00;;;;2038184;28;20215;-70
2024/02/21 00:16:13;;;;;;;38.20;25.37;;;;;22.10;101163.00;;;;2053897;28;20228;-70
2024/02/21 00:17:13;;;;;;;40.47;26.48;;;;;22.10;101168.00;;;;2048598;28;20220;-70
2024/02/21 00:18:14;;;;;;;35.50;24.30;;;;;22.10;101175.00;;;;2047471;28;20231;-70
2024/02/21 00:19:14;;;;;;;39.93;25.20;;;;;22.10;101170.00;;;;2057852;28;20301;-70
2024/02/21 00:20:15;;;;;;;35.60;24.57;;;;;22.10;101135.00;;;;2045899;28;20246;-70
2024/02/21 00:21:17;;;;;;;39.23;24.97;;;;;22.10;101168.00;;;;2055159;28;20742;-70
2024/02/21 00:22:18;;;;;;;37.72;25.30;;;;;22.10;101172.00;;;;2055789;28;20234;-70
2024/02/21 00:23:18;;;;;;;33.03;23.50;;;;;22.10;101163.00;;;;2055687;28;20220;-70
2024/02/21 00:24:18;;;;;;;35.40;23.60;;;;;22.10;101162.00;;;;2055379;28;20218;-70
2024/02/21 00:25:19;;;;;;;37.30;23.93;;;;;22.10;101155.00;;;;2045380;28;20223;-70
2024/02/21 00:26:20;;;;;;;35.00;23.60;;;;;22.10;101154.00;;;;2056613;28;20273;-71
2024/02/21 00:27:20;;;;;;;38.03;24.73;;;;;22.10;101163.00;;;;2055481;28;20516;-71
2024/02/21 00:28:21;;;;;;;36.07;23.87;;;;;22.10;101154.00;;;;2055401;28;20294;-71
2024/02/21 00:29:21;;;;;;;36.73;22.83;;;;;22.00;101148.00;;;;2062369;28;20219;-71
2024/02/21 00:30:21;;;;;;;34.87;23.10;;;;;22.10;101151.00;;;;2046057;28;20224;-71
2024/02/21 00:31:22;;;;;;;35.37;23.20;;;;;22.10;101138.00;;;;2055235;28;20223;-71
2024/02/21 00:32:22;;;;;;;36.00;23.27;;;;;22.10;101138.00;;;;2056006;28;20219;-70
2024/02/21 00:33:22;;;;;;;36.97;22.53;;;;;22.10;101147.00;;;;2055399;28;20301;-70
2024/02/21 00:34:23;;;;;;;35.27;22.37;;;;;22.10;101144.00;;;;2055453;28;20212;-70
2024/02/21 00:35:24;;;;;;;30.97;21.93;;;;;22.10;101146.00;;;;2042952;28;20244;-70
2024/02/21 00:36:24;;;;;;;31.00;21.80;;;;;22.10;101145.00;;;;2054929;28;20253;-70
2024/02/21 00:37:25;;;;;;;36.00;22.93;;;;;22.10;101142.00;;;;2047260;28;20220;-71
2024/02/21 00:38:25;;;;;;;34.30;21.47;;;;;22.10;101145.00;;;;2044533;28;20239;-71
2024/02/21 00:39:25;;;;;;;33.90;21.80;;;;;22.10;101146.00;;;;2055916;28;20294;-71
2024/02/21 00:40:26;;;;;;;33.33;21.90;;;;;22.00;101135.00;;;;2036673;28;20217;-71
2024/02/21 00:41:26;;;;;;;31.73;21.30;;;;;22.10;101127.00;;;;2044560;29;20220;-71
2024/02/21 00:42:26;;;;;;;32.30;21.37;;;;;22.00;101128.00;;;;2039256;29;20221;-71
2024/02/21 00:43:27;;;;;;;31.77;21.83;;;;;22.10;101135.00;;;;2049478;28;20216;-71
2024/02/21 00:44:27;;;;;;;33.57;21.37;;;;;22.10;101112.00;;;;2047238;28;20228;-71
2024/02/21 00:45:27;;;;;;;26.80;19.00;;;;;22.10;101121.00;;;;2028801;29;20220;-70
2024/02/21 00:46:28;;;;;;;32.63;21.77;;;;;22.00;101135.00;;;;2046816;28;20220;-70
2024/02/21 00:47:28;;;;;;;29.23;20.00;;;;;22.00;101136.00;;;;2052810;28;20221;-70
2024/02/21 00:48:28;;;;;;;30.00;20.40;;;;;22.00;101090.00;;;;2052721;28;21680;-70
2024/02/21 00:49:29;;;;;;;35.77;21.23;;;;;22.00;101127.00;;;;2055599;28;20216;-70
2024/02/21 00:50:29;;;;;;;31.13;20.70;;;;;22.00;101132.00;;;;2045339;28;20247;-70
2024/02/21 00:51:29;;;;;;;31.33;19.80;;;;;22.00;101121.00;;;;2055602;28;20237;-70
2024/02/21 00:52:30;;;;;;;34.27;21.60;;;;;22.00;101118.00;;;;2046393;28;20247;-70
2024/02/21 00:53:30;;;;;;;33.90;21.27;;;;;22.00;101117.00;;;;2047073;28;20208;-70
2024/02/21 00:54:30;;;;;;;27.53;18.07;;;;;22.00;101124.00;;;;2055435;28;20219;-70
2024/02/21 00:55:31;;;;;;;30.83;20.50;;;;;22.00;101115.00;;;;2043995;28;20235;-70
2024/02/21 00:56:31;;;;;;;30.93;18.93;;;;;22.00;101117.00;;;;2055675;28;20216;-70
2024/02/21 00:57:31;;;;;;;30.00;20.13;;;;;22.00;101121.00;;;;2052577;28;20211;-70
2024/02/21 00:58:32;;;;;;;27.73;18.93;;;;;22.00;101121.00;;;;2055018;28;20250;-70
2024/02/21 00:59:32;;;;;;;26.73;19.23;;;;;22.00;101120.00;;;;2055343;28;20215;-70
2024/02/21 01:00:33;;;;;;;32.90;19.20;;;;;22.00;101116.00;;;;2044446;28;20228;-71
2024/02/21 01:01:33;;;;;;;28.37;18.97;;;;;22.00;101115.00;;;;2055638;28;20219;-71
2024/02/21 01:02:33;;;;;;;26.03;18.10;;;;;22.00;101112.00;;;;2054757;28;20247;-71
2024/02/21 01:03:34;;;;;;;29.63;19.60;;;;;22.00;101111.00;;;;2055770;28;20299;-71
2024/02/21 01:04:34;;;;;;;33.07;18.60;;;;;22.00;101112.00;;;;2053235;28;20211;-70
2024/02/21 01:05:35;;;;;;;26.07;18.37;;;;;22.00;101107.00;;;;2050880;28;20270;-70
2024/02/21 01:06:35;;;;;;;26.23;18.63;;;;;22.00;101111.00;;;;2046857;28;20747;-70
2024/02/21 01:07:35;;;;;;;28.53;17.70;;;;;22.00;101104.00;;;;2047275;28;20220;-70
2024/02/21 01:08:36;;;;;;;27.33;18.50;;;;;22.00;101109.00;;;;2055341;28;20215;-70
2024/02/21 01:09:36;;;;;;;28.70;17.33;;;;;22.00;101100.00;;;;2054886;28;20785;-70
2024/02/21 01:10:36;;;;;;;28.40;17.90;;;;;21.90;101104.00;;;;2045723;28;20244;-70
2024/02/21 01:11:36;;;;;;;25.90;17.77;;;;;21.90;101093.00;;;;2055428;28;20215;-71
2024/02/21 01:12:37;;;;;;;26.10;17.27;;;;;21.90;101091.00;;;;2054881;28;20269;-70
2024/02/21 01:13:37;;;;;;;28.63;18.90;;;;;21.90;101086.00;;;;2055502;28;20211;-70
2024/02/21 01:14:37;;;;;;;25.50;16.87;;;;;21.90;101085.00;;;;2046013;28;20596;-70
2024/02/21 01:15:38;;;;;;;23.10;16.20;;;;;22.00;101080.00;;;;2037064;28;20549;-70
2024/02/21 01:16:38;;;;;;;27.60;18.30;;;;;21.90;101092.00;;;;2048260;28;20666;-70
2024/02/21 01:17:40;;;;;;;25.20;16.67;;;;;21.90;101082.00;;;;2045949;28;20600;-70
2024/02/21 01:18:40;;;;;;;24.85;16.83;;;;;21.90;101068.00;;;;2055440;28;20304;-70
2024/02/21 01:19:41;;;;;;;24.40;16.50;;;;;21.90;101082.00;;;;2054870;28;20231;-70
2024/02/21 01:20:41;;;;;;;23.87;15.57;;;;;21.90;101088.00;;;;2045584;28;20219;-70
2024/02/21 01:21:41;;;;;;;25.53;15.97;;;;;21.90;101079.00;;;;2054575;28;20497;-70
2024/02/21 01:22:42;;;;;;;23.23;16.70;;;;;21.90;101079.00;;;;2053277;28;20711;-70
2024/02/21 01:23:42;;;;;;;22.60;14.33;;;;;22.00;101082.00;;;;2055110;28;20219;-70
2024/02/21 01:24:42;;;;;;;25.37;15.63;;;;;21.90;101083.00;;;;2054520;28;20223;-70
2024/02/21 01:25:43;;;;;;;21.80;15.47;;;;;21.90;101069.00;;;;2040990;28;20312;-70
2024/02/21 01:26:43;;;;;;;23.40;15.40;;;;;21.90;101069.00;;;;2054399;28;20234;-70
2024/02/21 01:27:43;;;;;;;23.80;16.37;;;;;21.90;101047.00;;;;2052999;28;20250;-70
2024/02/21 01:28:44;;;;;;;22.47;14.90;;;;;21.90;101053.00;;;;2054865;28;20291;-70
2024/02/21 01:29:46;;;;;;;22.53;16.10;;;;;21.90;101047.00;;;;2055085;28;20220;-70
2024/02/21 01:30:46;;;;;;;25.88;15.43;;;;;21.90;101046.00;;;;2045584;28;20223;-70
2024/02/21 01:31:47;;;;;;;22.63;14.30;;;;;21.90;101042.00;;;;2055289;28;20207;-71
2024/02/21 01:32:47;;;;;;;23.17;14.67;;;;;21.90;101042.00;;;;2045022;28;20200;-71
2024/02/21 01:33:47;;;;;;;24.30;14.40;;;;;21.90;101047.00;;;;2045783;28;20204;-70
2024/02/21 01:34:48;;;;;;;22.47;14.90;;;;;21.90;101037.00;;;;2055241;28;20239;-70
2024/02/21 01:35:49;;;;;;;22.43;14.57;;;;;21.90;101044.00;;;;2045686;28;20215;-70
2024/02/21 01:36:50;;;;;;;23.02;14.52;;;;;21.90;101034.00;;;;2054738;28;20215;-70
2024/02/21 01:37:51;;;;;;;23.90;14.90;;;;;21.90;101046.00;;;;2054410;28;20249;-70
2024/02/21 01:38:52;;;;;;;20.88;14.32;;;;;21.90;101054.00;;;;2053354;28;20211;-71
2024/02/21 01:39:53;;;;;;;19.33;13.90;;;;;21.90;101051.00;;;;2038700;29;20232;-71
2024/02/21 01:40:53;;;;;;;26.27;14.37;;;;;21.80;101041.00;;;;2028285;28;20301;-71
2024/02/21 01:41:53;;;;;;;24.30;15.33;;;;;21.80;101042.00;;;;2054650;28;20491;-71
2024/02/21 01:42:55;;;;;;;21.07;13.70;;;;;21.90;100999.00;;;;2055176;28;20219;-70
2024/02/21 01:43:55;;;;;;;21.05;14.95;;;;;21.90;101044.00;;;;2054355;28;20226;-70
2024/02/21 01:44:55;;;;;;;23.77;14.50;;;;;21.80;101045.00;;;;2054594;28;20741;-70
2024/02/21 01:45:56;;;;;;;18.93;13.70;;;;;21.90;101037.00;;;;2044980;28;20688;-70
2024/02/21 01:46:56;;;;;;;22.20;13.43;;;;;21.80;101041.00;;;;2046555;28;20716;-71
2024/02/21 01:47:57;;;;;;;19.40;13.53;;;;;21.90;101032.00;;;;2044770;28;20221;-71
2024/02/21 01:48:57;;;;;;;21.13;13.07;;;;;21.90;101038.00;;;;2045849;28;20220;-71
2024/02/21 01:49:57;;;;;;;18.30;12.50;;;;;21.80;101037.00;;;;2055169;28;20231;-71
2024/02/21 01:50:58;;;;;;;18.33;13.13;;;;;21.80;101035.00;;;;2044165;28;20223;-71
2024/02/21 01:51:58;;;;;;;19.47;12.83;;;;;21.80;101043.00;;;;2055211;28;20219;-71
2024/02/21 01:52:58;;;;;;;19.37;13.57;;;;;21.80;101035.00;;;;2055114;28;20684;-71
2024/02/21 01:53:59;;;;;;;19.70;12.90;;;;;21.80;101034.00;;;;2054847;28;20226;-71
2024/02/21 01:54:59;;;;;;;22.53;13.20;;;;;21.80;101030.00;;;;2046623;28;20216;-71
2024/02/21 01:55:59;;;;;;;21.23;12.50;;;;;21.80;101034.00;;;;2036559;28;20212;-71
2024/02/21 01:57:00;;;;;;;16.03;12.00;;;;;21.80;101037.00;;;;2045776;28;20224;-71
2024/02/21 01:58:00;;;;;;;21.03;12.83;;;;;21.80;101039.00;;;;2045322;28;20212;-71
2024/02/21 01:59:00;;;;;;;19.43;13.50;;;;;21.80;101030.00;;;;2037902;29;20270;-71
2024/02/21 02:00:01;;;;;;;18.30;12.03;;;;;21.80;101027.00;;;;2030875;29;20218;-71
2024/02/21 02:01:01;;;;;;;21.73;12.83;;;;;21.80;101026.00;;;;2036023;28;20263;-71
2024/02/21 02:02:02;;;;;;;21.47;12.83;;;;;21.80;101023.00;;;;2055176;28;20219;-71
2024/02/21 02:03:02;;;;;;;15.13;10.67;;;;;21.80;101023.00;;;;2052911;28;20215;-70
2024/02/21 02:04:05;;;;;;;16.03;11.30;;;;;21.80;101021.00;;;;2046556;28;20220;-70
2024/02/21 02:05:06;;;;;;;16.38;11.38;;;;;21.80;101010.00;;;;2037401;28;20587;-70
2024/02/21 02:06:06;;;;;;;17.88;12.10;;;;;21.80;101016.00;;;;2033398;29;20228;-70
2024/02/21 02:07:07;;;;;;;18.33;11.60;;;;;21.80;100960.00;;;;2046570;28;20224;-70
2024/02/21 02:08:07;;;;;;;18.00;11.47;;;;;21.80;101020.00;;;;2045303;28;20228;-70
2024/02/21 02:09:08;;;;;;;19.33;12.17;;;;;21.80;101010.00;;;;2038572;29;20227;-71
2024/02/21 02:10:09;;;;;;;19.03;11.17;;;;;21.50;101018.00;;;;2028103;29;20221;-71
2024/02/21 02:11:10;;;;;;;19.00;11.27;;;;;21.80;101015.00;;;;2040290;29;20217;-70
2024/02/21 02:12:10;;;;;;;16.93;11.80;;;;;21.80;101009.00;;;;2038756;29;20696;-70
2024/02/21 02:13:11;;;;;;;15.83;11.23;;;;;21.80;101021.00;;;;2028715;29;20221;-70
2024/02/21 02:14:11;;;;;;;21.13;12.50;;;;;21.80;101015.00;;;;2038652;29;20228;-70
2024/02/21 02:15:11;;;;;;;18.67;11.60;;;;;21.80;101006.00;;;;2043000;28;20211;-70
2024/02/21 02:16:12;;;;;;;14.87;10.77;;;;;21.80;101007.00;;;;2053404;28;20728;-70
2024/02/21 02:17:12;;;;;;;15.93;11.10;;;;;21.80;101008.00;;;;2055111;28;20227;-70
2024/02/21 02:18:13;;;;;;;18.97;11.33;;;;;21.80;101010.00;;;;2054094;28;20231;-70
2024/02/21 02:19:15;;;;;;;17.08;10.57;;;;;21.80;100975.00;;;;2055137;28;20258;-70
2024/02/21 02:20:16;;;;;;;16.83;11.23;;;;;21.80;101004.00;;;;2043732;28;20215;-70
2024/02/21 02:21:24;;;;;;;18.13;11.10;;;;;21.70;100995.00;;;;2055581;28;20223;-70
2024/02/21 02:22:30;;;;;;;18.25;11.23;;;;;21.80;100997.00;;;;2051948;28;20467;-70
2024/02/21 02:23:31;;;;;;;18.13;11.02;;;;;21.80;100991.00;;;;2055397;28;20216;-70
2024/02/21 02:24:31;;;;;;;14.27;9.90;;;;;21.70;100993.00;;;;2054980;28;20222;-70
2024/02/21 02:25:32;;;;;;;14.10;9.97;;;;;21.80;100992.00;;;;2036008;28;20387;-70
2024/02/21 02:26:32;;;;;;;19.77;11.67;;;;;21.80;100968.00;;;;2046329;28;20224;-71
2024/02/21 02:27:32;;;;;;;13.87;9.20;;;;;21.70;100986.00;;;;2054134;28;20208;-71
2024/02/21 02:28:33;;;;;;;14.37;9.77;;;;;21.70;100996.00;;;;2054163;28;20231;-71
2024/02/21 02:29:33;;;;;;;17.37;10.20;;;;;21.70;100983.00;;;;2054109;28;20245;-71
2024/02/21 02:30:37;;;;;;;15.33;9.87;;;;;21.70;100982.00;;;;2048515;28;20225;-71
2024/02/21 02:31:38;;;;;;;14.55;8.77;;;;;21.70;100984.00;;;;2054641;28;20589;-71
2024/02/21 02:32:38;;;;;;;12.00;9.23;;;;;21.80;100972.00;;;;2054244;28;20708;-71
2024/02/21 02:33:39;;;;;;;17.00;9.97;;;;;21.80;100980.00;;;;2054817;28;20225;-71
2024/02/21 02:34:39;;;;;;;14.20;9.70;;;;;21.70;100972.00;;;;2054652;28;20862;-71
2024/02/21 02:35:39;;;;;;;14.50;9.63;;;;;21.70;100961.00;;;;2044124;28;20262;-71
2024/02/21 02:36:40;;;;;;;13.37;9.30;;;;;21.70;100971.00;;;;2044456;28;20218;-70
2024/02/21 02:37:40;;;;;;;14.00;9.57;;;;;21.70;100970.00;;;;2044975;28;20212;-70
2024/02/21 02:38:40;;;;;;;16.27;8.87;;;;;21.70;100960.00;;;;2054561;28;20214;-70
2024/02/21 02:39:41;;;;;;;15.00;9.40;;;;;21.70;100965.00;;;;2054092;28;20219;-71
2024/02/21 02:40:41;;;;;;;13.93;9.20;;;;;21.70;100968.00;;;;2045046;28;20242;-71
2024/02/21 02:41:41;;;;;;;14.20;10.23;;;;;21.70;100956.00;;;;2054556;28;20227;-71
2024/02/21 02:42:42;;;;;;;14.37;9.33;;;;;21.70;100959.00;;;;2039368;28;20223;-71
2024/02/21 02:43:42;;;;;;;15.23;9.97;;;;;21.70;100959.00;;;;2044181;28;20732;-71
2024/02/21 02:44:42;;;;;;;12.67;8.17;;;;;21.70;100946.00;;;;2052243;28;21027;-70
2024/02/21 02:45:43;;;;;;;17.03;9.77;;;;;21.70;100893.00;;;;2043380;28;20759;-71
2024/02/21 02:46:43;;;;;;;14.63;8.73;;;;;21.70;100893.00;;;;2054611;28;20225;-71
2024/02/21 02:47:46;;;;;;;12.77;8.40;;;;;21.60;100940.00;;;;2058597;28;20219;-70
2024/02/21 02:48:47;;;;;;;12.95;8.32;;;;;21.70;100947.00;;;;2054829;28;20207;-70
2024/02/21 02:49:50;;;;;;;12.93;9.17;;;;;21.70;100950.00;;;;2054154;28;20233;-70
2024/02/21 02:50:50;;;;;;;13.25;9.05;;;;;21.70;100952.00;;;;2044766;28;20758;-70
2024/02/21 02:51:51;;;;;;;15.70;8.93;;;;;21.70;100950.00;;;;2057165;28;20207;-70
2024/02/21 02:52:51;;;;;;;14.93;8.90;;;;;21.60;100900.00;;;;2058922;28;20218;-70
2024/02/21 02:53:52;;;;;;;15.10;8.77;;;;;21.70;100938.00;;;;2053709;28;20216;-70
2024/02/21 02:54:55;;;;;;;12.63;9.07;;;;;21.70;100933.00;;;;2058864;28;20269;-70
2024/02/21 02:55:55;;;;;;;12.82;9.10;;;;;21.70;100943.00;;;;2036434;28;20557;-70
2024/02/21 02:56:55;;;;;;;14.40;9.03;;;;;21.70;100942.00;;;;2042942;28;20247;-70
2024/02/21 02:57:56;;;;;;;15.53;8.10;;;;;21.70;100947.00;;;;2054660;28;20215;-70
2024/02/21 02:58:57;;;;;;;12.60;7.80;;;;;21.70;100943.00;;;;2052161;28;20707;-70
2024/02/21 02:59:57;;;;;;;12.87;8.10;;;;;21.70;100953.00;;;;2054980;28;20250;-70
2024/02/21 03:00:57;;;;;;;13.27;8.23;;;;;21.70;100935.00;;;;2044933;28;20216;-70
2024/02/21 03:01:58;;;;;;;13.90;8.67;;;;;21.70;100945.00;;;;2054108;28;20223;-70
2024/02/21 03:02:58;;;;;;;14.03;8.90;;;;;21.70;100943.00;;;;2052471;28;20306;-70
2024/02/21 03:03:58;;;;;;;12.93;8.87;;;;;21.60;100953.00;;;;2049994;28;20267;-70
2024/02/21 03:04:59;;;;;;;12.63;8.30;;;;;21.60;100951.00;;;;2058407;28;20211;-70
2024/02/21 03:05:59;;;;;;;12.37;8.47;;;;;21.70;100951.00;;;;2044698;28;20219;-70
2024/02/21 03:06:59;;;;;;;13.80;8.80;;;;;21.70;100947.00;;;;2052190;28;22264;-71
2024/02/21 03:08:00;;;;;;;12.30;7.87;;;;;21.60;100945.00;;;;2053908;28;20228;-71
2024/02/21 03:09:00;;;;;;;14.37;8.07;;;;;21.70;100940.00;;;;2053992;28;20664;-71
2024/02/21 03:10:01;;;;;;;12.63;7.20;;;;;21.60;100935.00;;;;2054533;28;21044;-71
2024/02/21 03:11:01;;;;;;;14.53;8.63;;;;;21.60;100935.00;;;;2044477;28;20235;-71
2024/02/21 03:12:04;;;;;;;11.33;7.57;;;;;21.60;100939.00;;;;2054298;28;20219;-70
2024/02/21 03:13:04;;;;;;;11.63;8.48;;;;;21.60;100934.00;;;;2054649;28;20223;-70
2024/02/21 03:14:05;;;;;;;14.27;8.70;;;;;21.60;100942.00;;;;2053638;28;20273;-70
2024/02/21 03:15:05;;;;;;;13.90;8.27;;;;;21.60;100936.00;;;;2053395;28;20223;-70
2024/02/21 03:16:06;;;;;;;11.20;7.30;;;;;21.60;100944.00;;;;2035707;28;20303;-70
2024/02/21 03:17:06;;;;;;;12.30;7.27;;;;;21.60;100938.00;;;;2044574;28;20220;-70
2024/02/21 03:18:07;;;;;;;12.90;7.70;;;;;21.60;100935.00;;;;2045235;28;20611;-70
2024/02/21 03:19:07;;;;;;;11.47;7.77;;;;;21.60;100931.00;;;;2037796;29;20232;-70
2024/02/21 03:20:10;;;;;;;12.20;7.47;;;;;21.60;100934.00;;;;2036731;28;20224;-70
2024/02/21 03:21:11;;;;;;;11.32;7.35;;;;;21.60;100933.00;;;;2045602;28;20220;-70
2024/02/21 03:22:11;;;;;;;11.87;7.67;;;;;21.60;100933.00;;;;2046890;28;20212;-70
2024/02/21 03:23:11;;;;;;;13.70;8.03;;;;;21.60;100930.00;;;;2046230;28;20239;-70
2024/02/21 03:24:12;;;;;;;18.10;7.93;;;;;21.60;100830.00;;;;2045769;28;20267;-70
2024/02/21 03:25:13;;;;;;;10.17;7.10;;;;;21.60;100931.00;;;;2036331;28;20236;-70
2024/02/21 03:26:16;;;;;;;11.63;7.10;;;;;21.60;100920.00;;;;2037884;29;20217;-70
2024/02/21 03:27:17;;;;;;;10.75;7.00;;;;;21.60;100916.00;;;;2038977;29;20220;-70
2024/02/21 03:28:17;;;;;;;10.77;7.00;;;;;21.60;100916.00;;;;2045939;28;20219;-70
2024/02/21 03:29:18;;;;;;;12.47;6.43;;;;;21.60;100914.00;;;;2054719;28;20216;-70
2024/02/21 03:30:18;;;;;;;11.87;6.93;;;;;21.60;100926.00;;;;2045064;28;20212;-70
2024/02/21 03:31:18;;;;;;;12.07;7.30;;;;;21.60;100915.00;;;;2037942;29;20308;-70
2024/02/21 03:32:19;;;;;;;12.37;7.27;;;;;21.60;100919.00;;;;2038399;29;20223;-70
2024/02/21 03:33:20;;;;;;;10.70;6.90;;;;;21.60;100900.00;;;;2046070;28;20212;-70
2024/02/21 03:34:21;;;;;;;10.38;6.70;;;;;21.60;100900.00;;;;2046197;28;20609;-70
2024/02/21 03:35:21;;;;;;;13.07;7.23;;;;;21.60;100903.00;;;;2036529;28;20219;-70
2024/02/21 03:36:21;;;;;;;10.70;6.80;;;;;21.60;100891.00;;;;2045504;28;20223;-70
2024/02/21 03:37:22;;;;;;;11.17;7.13;;;;;21.60;100905.00;;;;2036398;29;20306;-70
2024/02/21 03:38:22;;;;;;;11.80;6.77;;;;;21.50;100903.00;;;;2045755;28;20212;-70
2024/02/21 03:39:22;;;;;;;11.20;6.90;;;;;21.60;100895.00;;;;2054755;28;20259;-70
2024/02/21 03:40:23;;;;;;;9.80;6.73;;;;;21.60;100902.00;;;;2045047;28;20238;-70
2024/02/21 03:41:23;;;;;;;9.37;6.60;;;;;21.60;100907.00;;;;2055045;28;20699;-70
2024/02/21 03:42:23;;;;;;;10.90;6.70;;;;;21.60;100900.00;;;;2053907;28;20738;-70
2024/02/21 03:43:24;;;;;;;10.07;6.83;;;;;21.60;100910.00;;;;2056312;28;20215;-70
2024/02/21 03:44:24;;;;;;;10.87;7.37;;;;;21.60;100899.00;;;;2055714;28;20256;-70
2024/02/21 03:45:25;;;;;;;10.50;6.73;;;;;21.60;100911.00;;;;2044740;28;20223;-70
2024/02/21 03:46:25;;;;;;;9.07;6.23;;;;;21.50;100911.00;;;;2050606;28;20227;-70
2024/02/21 03:47:25;;;;;;;9.50;6.53;;;;;21.50;100906.00;;;;2053968;28;20254;-71
2024/02/21 03:48:26;;;;;;;9.63;6.83;;;;;21.50;100903.00;;;;2053499;28;20252;-71
2024/02/21 03:49:26;;;;;;;10.20;6.30;;;;;21.50;100909.00;;;;2054933;28;20222;-71
2024/02/21 03:50:27;;;;;;;10.60;6.23;;;;;21.50;100907.00;;;;2045125;28;20224;-71
2024/02/21 03:51:27;;;;;;;9.95;6.00;;;;;21.60;100898.00;;;;2053916;28;20215;-71
2024/02/21 03:52:28;;;;;;;9.67;6.53;;;;;21.50;100906.00;;;;2052152;28;20231;-70
2024/02/21 03:53:28;;;;;;;10.30;6.57;;;;;21.50;100904.00;;;;2054853;28;20232;-71
2024/02/21 03:54:28;;;;;;;10.43;6.30;;;;;21.50;100909.00;;;;2055225;28;20208;-71
2024/02/21 03:55:29;;;;;;;8.30;5.90;;;;;21.50;100911.00;;;;2044595;28;20275;-71
2024/02/21 03:56:29;;;;;;;8.83;6.00;;;;;21.50;100925.00;;;;2053798;28;20216;-71
2024/02/21 03:57:29;;;;;;;9.83;6.53;;;;;21.50;100919.00;;;;2054427;28;20295;-70
2024/02/21 03:58:30;;;;;;;10.20;5.70;;;;;21.50;100921.00;;;;2053588;28;20302;-70
2024/02/21 03:59:30;;;;;;;10.77;6.27;;;;;21.50;100917.00;;;;2054868;28;20230;-70
2024/02/21 04:00:31;;;;;;;9.40;6.23;;;;;21.50;100913.00;;;;2045109;28;20719;-70
2024/02/21 04:01:31;;;;;;;9.93;5.87;;;;;21.50;100913.00;;;;2060492;28;20695;-70
2024/02/21 04:02:31;;;;;;;12.87;6.37;;;;;21.50;100919.00;;;;2054243;28;20699;-70
2024/02/21 04:03:32;;;;;;;9.47;5.53;;;;;21.50;100922.00;;;;2044098;28;20224;-70
2024/02/21 04:04:32;;;;;;;8.77;5.50;;;;;21.50;100925.00;;;;2054056;28;20231;-70
2024/02/21 04:05:33;;;;;;;10.13;6.07;;;;;21.50;100937.00;;;;2044562;28;20231;-70
2024/02/21 04:06:33;;;;;;;11.33;5.90;;;;;21.50;100939.00;;;;2051724;28;20213;-70
2024/02/21 04:07:33;;;;;;;8.57;5.80;;;;;21.50;100931.00;;;;2054224;28;20486;-70
2024/02/21 04:08:34;;;;;;;7.70;5.40;;;;;21.50;100935.00;;;;2050971;28;20215;-70
2024/02/21 04:09:34;;;;;;;10.07;5.97;;;;;21.50;100937.00;;;;2054803;28;20294;-71
2024/02/21 04:10:35;;;;;;;7.37;5.27;;;;;21.50;100932.00;;;;2044432;28;20243;-71
2024/02/21 04:11:35;;;;;;;10.77;6.57;;;;;21.50;100933.00;;;;2054695;28;20751;-71
2024/02/21 04:12:36;;;;;;;8.80;5.30;;;;;21.50;100929.00;;;;2054474;28;21056;-70
2024/02/21 04:13:36;;;;;;;9.70;6.20;;;;;21.50;100926.00;;;;2053421;28;20207;-70
2024/02/21 04:14:36;;;;;;;9.77;5.50;;;;;21.50;100930.00;;;;2054722;28;20261;-70
2024/02/21 04:15:36;;;;;;;9.53;5.43;;;;;21.50;100925.00;;;;2044633;28;20228;-70
2024/02/21 04:16:37;;;;;;;9.00;5.40;;;;;21.50;100933.00;;;;2054735;28;20258;-70
2024/02/21 04:17:38;;;;;;;8.03;5.10;;;;;21.50;100938.00;;;;2053894;28;20230;-70
2024/02/21 04:18:39;;;;;;;9.13;5.80;;;;;21.50;100927.00;;;;2044829;28;21099;-70
2024/02/21 04:19:40;;;;;;;6.95;4.93;;;;;21.50;100926.00;;;;2044580;28;20291;-70
2024/02/21 04:20:40;;;;;;;8.13;5.33;;;;;21.50;100924.00;;;;2044083;28;20562;-70
2024/02/21 04:21:40;;;;;;;7.57;4.60;;;;;21.50;100922.00;;;;2053086;28;20572;-70
2024/02/21 04:22:43;;;;;;;10.60;5.23;;;;;21.50;100916.00;;;;2055486;28;20717;-70
2024/02/21 04:23:43;;;;;;;8.82;5.40;;;;;21.50;100870.00;;;;2048694;28;20692;-70
2024/02/21 04:24:43;;;;;;;8.03;4.97;;;;;21.50;100912.00;;;;2055523;28;20243;-70
2024/02/21 04:25:43;;;;;;;9.80;5.90;;;;;21.50;100917.00;;;;2045993;28;20215;-70
2024/02/21 04:26:44;;;;;;;8.00;5.03;;;;;21.40;100920.00;;;;2056029;28;20600;-71
2024/02/21 04:27:44;;;;;;;8.67;5.13;;;;;21.40;100916.00;;;;2055673;28;20762;-71
2024/02/21 04:28:45;;;;;;;8.00;4.77;;;;;21.40;100918.00;;;;2052584;28;20217;-71
2024/02/21 04:29:45;;;;;;;6.97;4.60;;;;;21.50;100913.00;;;;2056215;28;20258;-71
2024/02/21 04:30:46;;;;;;;7.80;5.07;;;;;21.50;100918.00;;;;2045028;28;20223;-71
2024/02/21 04:31:46;;;;;;;9.00;5.40;;;;;21.50;100918.00;;;;2056267;28;20231;-71
2024/02/21 04:32:46;;;;;;;11.20;5.90;;;;;21.50;100919.00;;;;2055996;28;20286;-71
2024/02/21 04:33:47;;;;;;;8.43;5.10;;;;;21.50;100913.00;;;;2055520;28;20223;-71
2024/02/21 04:34:47;;;;;;;7.43;5.10;;;;;21.50;100922.00;;;;2053565;28;20284;-71
2024/02/21 04:35:47;;;;;;;7.77;4.20;;;;;21.40;100916.00;;;;2043098;28;20589;-71
2024/02/21 04:36:48;;;;;;;8.47;5.30;;;;;21.50;100916.00;;;;2056073;28;20226;-71
2024/02/21 04:37:49;;;;;;;6.30;4.40;;;;;21.50;100914.00;;;;2051839;28;20219;-71
2024/02/21 04:38:50;;;;;;;8.25;4.60;;;;;21.50;100917.00;;;;2055040;28;20216;-70
2024/02/21 04:39:50;;;;;;;6.60;4.13;;;;;21.40;100914.00;;;;2056021;28;20216;-70
2024/02/21 04:40:50;;;;;;;7.87;4.80;;;;;21.50;100923.00;;;;2041183;28;20467;-70
2024/02/21 04:41:51;;;;;;;6.97;4.40;;;;;21.50;100903.00;;;;2049988;28;20297;-70
2024/02/21 04:42:51;;;;;;;7.10;4.67;;;;;21.40;100905.00;;;;2056097;28;20219;-70
2024/02/21 04:43:51;;;;;;;7.90;5.10;;;;;21.40;100910.00;;;;2054744;28;20231;-70
2024/02/21 04:44:52;;;;;;;9.40;4.53;;;;;21.40;100912.00;;;;2055361;28;20214;-70
2024/02/21 04:45:53;;;;;;;8.67;4.40;;;;;21.50;100909.00;;;;2046776;28;20206;-70
2024/02/21 04:46:53;;;;;;;7.78;4.78;;;;;21.40;100907.00;;;;2055999;28;20234;-70
2024/02/21 04:47:54;;;;;;;6.00;4.40;;;;;21.40;100906.00;;;;2053781;28;20703;-70
2024/02/21 04:48:55;;;;;;;7.10;4.67;;;;;21.40;100901.00;;;;2055954;28;20231;-70
2024/02/21 04:49:55;;;;;;;6.53;4.35;;;;;21.50;100910.00;;;;2055780;28;20567;-70
2024/02/21 04:50:56;;;;;;;7.00;4.60;;;;;21.40;100905.00;;;;2045576;28;20233;-70
2024/02/21 04:51:56;;;;;;;8.13;4.63;;;;;21.40;100903.00;;;;2055442;28;20215;-70
2024/02/21 04:52:56;;;;;;;9.13;4.23;;;;;21.40;100906.00;;;;2055446;28;20235;-71
2024/02/21 04:53:57;;;;;;;6.53;4.83;;;;;21.40;100901.00;;;;2057687;28;20227;-71